sensor_id;sensor_type;location;lat;lon;timestamp;temperature;humidity
81935;DHT22;71405;47.674;-2.050;2024-02-26T00:00:38;18.90;55.60
81935;DHT22;71405;47.674;-2.050;2024-02-26T00:03:04;18.90;55.30
81935;DHT22;71405;47.674;-2.050;2024-02-26T00:05:30;18.80;55.50
81935;DHT22;71405;47.674;-2.050;2024-02-26T00:07:56;18.80;55.30
81935;DHT22;71405;47.674;-2.050;2024-02-26T00:10:22;18.80;55.00
81935;DHT22;71405;47.674;-2.050;2024-02-26T00:12:48;18.80;55.30
81935;DHT22;71405;47.674;-2.050;2024-02-26T00:15:13;18.80;55.40
81935;DHT22;71405;47.674;-2.050;2024-02-26T00:17:39;18.80;55.80
81935;DHT22;71405;47.674;-2.050;2024-02-26T00:20:06;18.80;55.30
81935;DHT22;71405;47.674;-2.050;2024-02-26T00:22:35;18.80;55.50
81935;DHT22;71405;47.674;-2.050;2024-02-26T00:25:00;18.80;55.50
81935;DHT22;71405;47.674;-2.050;2024-02-26T00:27:26;18.80;55.70
81935;DHT22;71405;47.674;-2.050;2024-02-26T00:29:52;18.80;55.60
81935;DHT22;71405;47.674;-2.050;2024-02-26T00:32:17;18.80;56.20
81935;DHT22;71405;47.674;-2.050;2024-02-26T00:34:43;18.80;56.30
81935;DHT22;71405;47.674;-2.050;2024-02-26T00:37:09;18.80;55.90
81935;DHT22;71405;47.674;-2.050;2024-02-26T00:39:35;18.80;55.80
81935;DHT22;71405;47.674;-2.050;2024-02-26T00:42:00;18.80;55.30
81935;DHT22;71405;47.674;-2.050;2024-02-26T00:44:26;18.80;55.70
81935;DHT22;71405;47.674;-2.050;2024-02-26T00:46:52;18.80;56.10
81935;DHT22;71405;47.674;-2.050;2024-02-26T00:49:17;18.80;55.40
81935;DHT22;71405;47.674;-2.050;2024-02-26T00:51:43;18.70;55.70
81935;DHT22;71405;47.674;-2.050;2024-02-26T00:54:09;18.80;55.60
81935;DHT22;71405;47.674;-2.050;2024-02-26T00:56:34;18.70;55.30
81935;DHT22;71405;47.674;-2.050;2024-02-26T00:59:00;18.70;55.50
81935;DHT22;71405;47.674;-2.050;2024-02-26T01:01:26;18.70;55.60
81935;DHT22;71405;47.674;-2.050;2024-02-26T01:03:52;18.70;55.60
81935;DHT22;71405;47.674;-2.050;2024-02-26T01:06:18;18.70;55.40
81935;DHT22;71405;47.674;-2.050;2024-02-26T01:08:44;18.70;56.30
81935;DHT22;71405;47.674;-2.050;2024-02-26T01:11:09;18.70;55.90
81935;DHT22;71405;47.674;-2.050;2024-02-26T01:13:35;18.70;55.80
81935;DHT22;71405;47.674;-2.050;2024-02-26T01:16:01;18.70;55.70
81935;DHT22;71405;47.674;-2.050;2024-02-26T01:18:27;18.70;55.80
81935;DHT22;71405;47.674;-2.050;2024-02-26T01:20:52;18.70;56.10
81935;DHT22;71405;47.674;-2.050;2024-02-26T01:23:20;18.70;55.70
81935;DHT22;71405;47.674;-2.050;2024-02-26T01:25:45;18.70;55.80
81935;DHT22;71405;47.674;-2.050;2024-02-26T01:28:11;18.70;55.70
81935;DHT22;71405;47.674;-2.050;2024-02-26T01:30:37;18.70;55.40
81935;DHT22;71405;47.674;-2.050;2024-02-26T01:33:03;18.70;55.90
81935;DHT22;71405;47.674;-2.050;2024-02-26T01:35:29;18.70;55.60
81935;DHT22;71405;47.674;-2.050;2024-02-26T01:37:55;18.70;55.60
81935;DHT22;71405;47.674;-2.050;2024-02-26T01:40:21;18.70;55.30
81935;DHT22;71405;47.674;-2.050;2024-02-26T01:42:47;18.70;55.70
81935;DHT22;71405;47.674;-2.050;2024-02-26T01:45:17;18.70;55.30
81935;DHT22;71405;47.674;-2.050;2024-02-26T01:47:51;18.70;56.00
81935;DHT22;71405;47.674;-2.050;2024-02-26T01:50:20;18.70;55.90
81935;DHT22;71405;47.674;-2.050;2024-02-26T01:52:47;18.70;55.20
81935;DHT22;71405;47.674;-2.050;2024-02-26T01:55:15;18.70;55.60
81935;DHT22;71405;47.674;-2.050;2024-02-26T01:57:44;18.70;55.40
81935;DHT22;71405;47.674;-2.050;2024-02-26T02:00:11;18.70;55.50
81935;DHT22;71405;47.674;-2.050;2024-02-26T02:02:38;18.70;55.40
81935;DHT22;71405;47.674;-2.050;2024-02-26T02:05:05;18.70;55.50
81935;DHT22;71405;47.674;-2.050;2024-02-26T02:07:31;18.70;55.40
81935;DHT22;71405;47.674;-2.050;2024-02-26T02:09:57;18.70;55.30
81935;DHT22;71405;47.674;-2.050;2024-02-26T02:12:23;18.70;55.40
81935;DHT22;71405;47.674;-2.050;2024-02-26T02:14:49;18.70;55.60
81935;DHT22;71405;47.674;-2.050;2024-02-26T02:17:15;18.70;55.30
81935;DHT22;71405;47.674;-2.050;2024-02-26T02:19:41;18.60;55.00
81935;DHT22;71405;47.674;-2.050;2024-02-26T02:22:06;18.70;55.40
81935;DHT22;71405;47.674;-2.050;2024-02-26T02:24:32;18.70;55.10
81935;DHT22;71405;47.674;-2.050;2024-02-26T02:26:58;18.70;55.40
81935;DHT22;71405;47.674;-2.050;2024-02-26T02:29:24;18.60;55.20
81935;DHT22;71405;47.674;-2.050;2024-02-26T02:31:50;18.60;55.00
81935;DHT22;71405;47.674;-2.050;2024-02-26T02:34:16;18.60;54.90
81935;DHT22;71405;47.674;-2.050;2024-02-26T02:36:52;18.70;55.50
81935;DHT22;71405;47.674;-2.050;2024-02-26T02:39:18;18.70;55.70
81935;DHT22;71405;47.674;-2.050;2024-02-26T02:41:43;18.60;55.60
81935;DHT22;71405;47.674;-2.050;2024-02-26T02:44:09;18.60;55.70
81935;DHT22;71405;47.674;-2.050;2024-02-26T02:46:35;18.60;55.80
81935;DHT22;71405;47.674;-2.050;2024-02-26T02:49:01;18.60;56.10
81935;DHT22;71405;47.674;-2.050;2024-02-26T02:51:27;18.60;55.50
81935;DHT22;71405;47.674;-2.050;2024-02-26T02:53:53;18.60;55.50
81935;DHT22;71405;47.674;-2.050;2024-02-26T02:56:19;18.60;55.30
81935;DHT22;71405;47.674;-2.050;2024-02-26T02:58:44;18.60;55.50
81935;DHT22;71405;47.674;-2.050;2024-02-26T03:01:10;18.60;55.20
81935;DHT22;71405;47.674;-2.050;2024-02-26T03:03:36;18.60;55.20
81935;DHT22;71405;47.674;-2.050;2024-02-26T03:06:03;18.60;55.50
81935;DHT22;71405;47.674;-2.050;2024-02-26T03:08:29;18.60;55.50
81935;DHT22;71405;47.674;-2.050;2024-02-26T03:10:54;18.60;55.40
81935;DHT22;71405;47.674;-2.050;2024-02-26T03:13:20;18.60;55.10
81935;DHT22;71405;47.674;-2.050;2024-02-26T03:15:46;18.60;56.10
81935;DHT22;71405;47.674;-2.050;2024-02-26T03:18:12;18.60;55.90
81935;DHT22;71405;47.674;-2.050;2024-02-26T03:20:37;18.60;55.50
81935;DHT22;71405;47.674;-2.050;2024-02-26T03:23:03;18.60;55.70
81935;DHT22;71405;47.674;-2.050;2024-02-26T03:25:29;18.60;55.80
81935;DHT22;71405;47.674;-2.050;2024-02-26T03:27:55;18.60;55.90
81935;DHT22;71405;47.674;-2.050;2024-02-26T03:30:20;18.60;55.80
81935;DHT22;71405;47.674;-2.050;2024-02-26T03:32:46;18.60;56.10
81935;DHT22;71405;47.674;-2.050;2024-02-26T03:35:13;18.60;55.70
81935;DHT22;71405;47.674;-2.050;2024-02-26T03:37:39;18.60;55.30
81935;DHT22;71405;47.674;-2.050;2024-02-26T03:40:05;18.60;55.40
81935;DHT22;71405;47.674;-2.050;2024-02-26T03:42:31;18.60;55.60
81935;DHT22;71405;47.674;-2.050;2024-02-26T03:44:57;18.60;55.80
81935;DHT22;71405;47.674;-2.050;2024-02-26T03:47:22;18.60;55.60
81935;DHT22;71405;47.674;-2.050;2024-02-26T03:49:48;18.60;55.70
81935;DHT22;71405;47.674;-2.050;2024-02-26T03:52:14;18.60;55.60
81935;DHT22;71405;47.674;-2.050;2024-02-26T03:54:40;18.60;55.60
81935;DHT22;71405;47.674;-2.050;2024-02-26T03:57:06;18.60;56.10
81935;DHT22;71405;47.674;-2.050;2024-02-26T03:59:31;18.60;55.60
81935;DHT22;71405;47.674;-2.050;2024-02-26T04:01:57;18.60;55.60
81935;DHT22;71405;47.674;-2.050;2024-02-26T04:04:23;18.60;55.20
81935;DHT22;71405;47.674;-2.050;2024-02-26T04:06:48;18.60;54.50
81935;DHT22;71405;47.674;-2.050;2024-02-26T04:09:14;18.60;55.00
81935;DHT22;71405;47.674;-2.050;2024-02-26T04:11:40;18.60;54.70
81935;DHT22;71405;47.674;-2.050;2024-02-26T04:14:07;18.60;54.40
81935;DHT22;71405;47.674;-2.050;2024-02-26T04:16:34;18.70;54.40
81935;DHT22;71405;47.674;-2.050;2024-02-26T04:19:01;18.70;54.60
81935;DHT22;71405;47.674;-2.050;2024-02-26T04:21:27;18.70;54.20
81935;DHT22;71405;47.674;-2.050;2024-02-26T04:23:52;18.70;54.30
81935;DHT22;71405;47.674;-2.050;2024-02-26T04:26:20;18.70;54.10
81935;DHT22;71405;47.674;-2.050;2024-02-26T04:28:46;18.70;54.20
81935;DHT22;71405;47.674;-2.050;2024-02-26T04:31:12;18.70;54.10
81935;DHT22;71405;47.674;-2.050;2024-02-26T04:33:38;18.70;54.00
81935;DHT22;71405;47.674;-2.050;2024-02-26T04:36:04;18.70;54.00
81935;DHT22;71405;47.674;-2.050;2024-02-26T04:38:30;18.70;54.20
81935;DHT22;71405;47.674;-2.050;2024-02-26T04:40:55;18.70;54.60
81935;DHT22;71405;47.674;-2.050;2024-02-26T04:43:21;18.70;54.80
81935;DHT22;71405;47.674;-2.050;2024-02-26T04:45:46;18.80;54.80
81935;DHT22;71405;47.674;-2.050;2024-02-26T04:48:13;18.80;54.90
81935;DHT22;71405;47.674;-2.050;2024-02-26T04:50:39;18.80;54.90
81935;DHT22;71405;47.674;-2.050;2024-02-26T04:53:04;18.80;54.80
81935;DHT22;71405;47.674;-2.050;2024-02-26T04:55:30;18.80;54.80
81935;DHT22;71405;47.674;-2.050;2024-02-26T04:57:56;18.80;54.70
81935;DHT22;71405;47.674;-2.050;2024-02-26T05:00:21;18.80;54.40
81935;DHT22;71405;47.674;-2.050;2024-02-26T05:02:47;18.80;54.70
81935;DHT22;71405;47.674;-2.050;2024-02-26T05:05:13;18.80;54.40
81935;DHT22;71405;47.674;-2.050;2024-02-26T05:07:42;18.80;54.50
81935;DHT22;71405;47.674;-2.050;2024-02-26T05:10:09;18.80;54.60
81935;DHT22;71405;47.674;-2.050;2024-02-26T05:12:34;18.80;54.80
81935;DHT22;71405;47.674;-2.050;2024-02-26T05:15:01;18.80;54.70
81935;DHT22;71405;47.674;-2.050;2024-02-26T05:17:27;18.80;54.50
81935;DHT22;71405;47.674;-2.050;2024-02-26T05:19:53;18.80;54.60
81935;DHT22;71405;47.674;-2.050;2024-02-26T05:22:19;18.80;54.90
81935;DHT22;71405;47.674;-2.050;2024-02-26T05:24:44;18.90;54.70
81935;DHT22;71405;47.674;-2.050;2024-02-26T05:27:10;18.90;54.50
81935;DHT22;71405;47.674;-2.050;2024-02-26T05:29:37;18.90;54.00
81935;DHT22;71405;47.674;-2.050;2024-02-26T05:32:04;18.90;54.00
81935;DHT22;71405;47.674;-2.050;2024-02-26T05:34:30;18.90;53.90
81935;DHT22;71405;47.674;-2.050;2024-02-26T05:36:56;18.90;53.90
81935;DHT22;71405;47.674;-2.050;2024-02-26T05:39:21;18.90;54.30
81935;DHT22;71405;47.674;-2.050;2024-02-26T05:41:47;18.90;54.00
81935;DHT22;71405;47.674;-2.050;2024-02-26T05:44:13;18.90;53.80
81935;DHT22;71405;47.674;-2.050;2024-02-26T05:46:40;18.90;54.10
81935;DHT22;71405;47.674;-2.050;2024-02-26T05:49:05;18.90;54.60
81935;DHT22;71405;47.674;-2.050;2024-02-26T05:51:32;18.90;54.60
81935;DHT22;71405;47.674;-2.050;2024-02-26T05:53:58;18.90;54.60
81935;DHT22;71405;47.674;-2.050;2024-02-26T05:56:23;18.90;54.50
81935;DHT22;71405;47.674;-2.050;2024-02-26T05:58:50;18.90;53.30
81935;DHT22;71405;47.674;-2.050;2024-02-26T06:01:16;18.90;53.90
81935;DHT22;71405;47.674;-2.050;2024-02-26T06:03:43;18.90;54.50
81935;DHT22;71405;47.674;-2.050;2024-02-26T06:06:09;18.90;54.20
81935;DHT22;71405;47.674;-2.050;2024-02-26T06:08:35;18.90;54.20
81935;DHT22;71405;47.674;-2.050;2024-02-26T06:11:05;19.00;54.30
81935;DHT22;71405;47.674;-2.050;2024-02-26T06:13:32;18.90;54.20
81935;DHT22;71405;47.674;-2.050;2024-02-26T06:15:58;18.90;53.90
81935;DHT22;71405;47.674;-2.050;2024-02-26T06:18:23;18.90;53.90
81935;DHT22;71405;47.674;-2.050;2024-02-26T06:20:49;18.90;53.60
81935;DHT22;71405;47.674;-2.050;2024-02-26T06:23:15;18.90;53.70
81935;DHT22;71405;47.674;-2.050;2024-02-26T06:25:41;18.90;53.60
81935;DHT22;71405;47.674;-2.050;2024-02-26T06:28:08;18.90;53.90
81935;DHT22;71405;47.674;-2.050;2024-02-26T06:30:34;18.90;53.90
81935;DHT22;71405;47.674;-2.050;2024-02-26T06:32:59;18.80;54.40
81935;DHT22;71405;47.674;-2.050;2024-02-26T06:35:25;18.80;54.90
81935;DHT22;71405;47.674;-2.050;2024-02-26T06:37:51;18.80;54.60
81935;DHT22;71405;47.674;-2.050;2024-02-26T06:40:21;18.80;54.80
81935;DHT22;71405;47.674;-2.050;2024-02-26T06:42:47;18.80;54.70
81935;DHT22;71405;47.674;-2.050;2024-02-26T06:45:13;18.80;55.00
81935;DHT22;71405;47.674;-2.050;2024-02-26T06:47:39;18.80;54.70
81935;DHT22;71405;47.674;-2.050;2024-02-26T06:50:04;18.80;54.70
81935;DHT22;71405;47.674;-2.050;2024-02-26T06:52:30;18.80;54.70
81935;DHT22;71405;47.674;-2.050;2024-02-26T06:54:56;18.80;55.10
81935;DHT22;71405;47.674;-2.050;2024-02-26T06:57:21;18.80;54.70
81935;DHT22;71405;47.674;-2.050;2024-02-26T06:59:47;18.80;54.70
81935;DHT22;71405;47.674;-2.050;2024-02-26T07:02:13;18.70;54.60
81935;DHT22;71405;47.674;-2.050;2024-02-26T07:04:39;18.80;54.30
81935;DHT22;71405;47.674;-2.050;2024-02-26T07:07:06;18.70;54.60
81935;DHT22;71405;47.674;-2.050;2024-02-26T07:09:32;18.70;54.60
81935;DHT22;71405;47.674;-2.050;2024-02-26T07:11:58;18.70;54.30
81935;DHT22;71405;47.674;-2.050;2024-02-26T07:14:23;18.70;55.00
81935;DHT22;71405;47.674;-2.050;2024-02-26T07:16:50;18.70;54.90
81935;DHT22;71405;47.674;-2.050;2024-02-26T07:19:16;18.70;56.20
81935;DHT22;71405;47.674;-2.050;2024-02-26T07:21:41;18.70;57.50
81935;DHT22;71405;47.674;-2.050;2024-02-26T07:24:07;18.80;57.60
81935;DHT22;71405;47.674;-2.050;2024-02-26T07:26:33;18.70;57.90
81935;DHT22;71405;47.674;-2.050;2024-02-26T07:28:59;18.70;58.10
81935;DHT22;71405;47.674;-2.050;2024-02-26T07:31:25;18.70;58.00
81935;DHT22;71405;47.674;-2.050;2024-02-26T07:33:51;18.70;57.90
81935;DHT22;71405;47.674;-2.050;2024-02-26T07:36:17;18.70;57.60
81935;DHT22;71405;47.674;-2.050;2024-02-26T07:38:42;18.70;57.70
81935;DHT22;71405;47.674;-2.050;2024-02-26T07:41:08;18.70;57.50
81935;DHT22;71405;47.674;-2.050;2024-02-26T07:43:34;18.70;57.00
81935;DHT22;71405;47.674;-2.050;2024-02-26T07:45:59;18.70;56.80
81935;DHT22;71405;47.674;-2.050;2024-02-26T07:48:25;18.60;56.70
81935;DHT22;71405;47.674;-2.050;2024-02-26T07:50:51;18.60;56.70
81935;DHT22;71405;47.674;-2.050;2024-02-26T07:53:16;18.60;56.90
81935;DHT22;71405;47.674;-2.050;2024-02-26T07:55:42;18.60;56.70
81935;DHT22;71405;47.674;-2.050;2024-02-26T07:58:08;18.60;56.40
81935;DHT22;71405;47.674;-2.050;2024-02-26T08:00:33;18.60;56.60
81935;DHT22;71405;47.674;-2.050;2024-02-26T08:02:59;18.60;56.40
81935;DHT22;71405;47.674;-2.050;2024-02-26T08:05:25;18.60;56.50
81935;DHT22;71405;47.674;-2.050;2024-02-26T08:07:50;18.60;56.30
81935;DHT22;71405;47.674;-2.050;2024-02-26T08:10:16;18.60;56.10
81935;DHT22;71405;47.674;-2.050;2024-02-26T08:12:42;18.60;56.60
81935;DHT22;71405;47.674;-2.050;2024-02-26T08:15:08;18.60;56.20
81935;DHT22;71405;47.674;-2.050;2024-02-26T08:17:34;18.60;56.40
81935;DHT22;71405;47.674;-2.050;2024-02-26T08:20:00;18.50;55.90
81935;DHT22;71405;47.674;-2.050;2024-02-26T08:22:26;18.60;56.20
81935;DHT22;71405;47.674;-2.050;2024-02-26T08:24:51;18.60;56.00
81935;DHT22;71405;47.674;-2.050;2024-02-26T08:27:17;18.50;55.90
81935;DHT22;71405;47.674;-2.050;2024-02-26T08:29:43;18.50;55.90
81935;DHT22;71405;47.674;-2.050;2024-02-26T08:32:08;18.50;55.90
81935;DHT22;71405;47.674;-2.050;2024-02-26T08:34:34;18.50;56.00
81935;DHT22;71405;47.674;-2.050;2024-02-26T08:37:00;18.50;55.90
81935;DHT22;71405;47.674;-2.050;2024-02-26T08:39:25;18.50;55.80
81935;DHT22;71405;47.674;-2.050;2024-02-26T08:41:51;18.50;55.70
81935;DHT22;71405;47.674;-2.050;2024-02-26T08:44:17;18.50;55.60
81935;DHT22;71405;47.674;-2.050;2024-02-26T08:46:43;18.50;55.70
81935;DHT22;71405;47.674;-2.050;2024-02-26T08:49:08;18.50;56.00
81935;DHT22;71405;47.674;-2.050;2024-02-26T08:51:35;18.50;55.80
81935;DHT22;71405;47.674;-2.050;2024-02-26T08:54:00;18.50;56.40
81935;DHT22;71405;47.674;-2.050;2024-02-26T08:56:26;18.50;55.90
81935;DHT22;71405;47.674;-2.050;2024-02-26T08:58:52;18.50;56.20
81935;DHT22;71405;47.674;-2.050;2024-02-26T09:01:20;18.50;56.30
81935;DHT22;71405;47.674;-2.050;2024-02-26T09:03:45;18.50;56.10
81935;DHT22;71405;47.674;-2.050;2024-02-26T09:06:11;18.50;55.50
81935;DHT22;71405;47.674;-2.050;2024-02-26T09:08:39;18.50;55.40
81935;DHT22;71405;47.674;-2.050;2024-02-26T09:11:05;18.50;55.30
81935;DHT22;71405;47.674;-2.050;2024-02-26T09:13:31;18.50;55.40
81935;DHT22;71405;47.674;-2.050;2024-02-26T09:15:56;18.60;55.80
81935;DHT22;71405;47.674;-2.050;2024-02-26T09:18:22;18.60;55.60
81935;DHT22;71405;47.674;-2.050;2024-02-26T09:20:48;18.60;55.40
81935;DHT22;71405;47.674;-2.050;2024-02-26T09:23:13;18.60;55.40
81935;DHT22;71405;47.674;-2.050;2024-02-26T09:25:39;18.60;55.00
81935;DHT22;71405;47.674;-2.050;2024-02-26T09:28:05;18.60;55.40
81935;DHT22;71405;47.674;-2.050;2024-02-26T09:30:31;18.60;55.20
81935;DHT22;71405;47.674;-2.050;2024-02-26T09:32:56;18.60;55.20
81935;DHT22;71405;47.674;-2.050;2024-02-26T09:35:22;18.60;54.90
81935;DHT22;71405;47.674;-2.050;2024-02-26T09:37:48;18.60;55.30
81935;DHT22;71405;47.674;-2.050;2024-02-26T09:40:15;18.60;55.00
81935;DHT22;71405;47.674;-2.050;2024-02-26T09:42:45;18.60;55.10
81935;DHT22;71405;47.674;-2.050;2024-02-26T09:45:21;18.60;55.10
81935;DHT22;71405;47.674;-2.050;2024-02-26T09:47:48;18.60;55.00
81935;DHT22;71405;47.674;-2.050;2024-02-26T09:50:17;18.70;54.60
81935;DHT22;71405;47.674;-2.050;2024-02-26T09:52:43;18.70;55.00
81935;DHT22;71405;47.674;-2.050;2024-02-26T09:55:09;18.70;54.90
81935;DHT22;71405;47.674;-2.050;2024-02-26T09:57:38;18.70;55.00
81935;DHT22;71405;47.674;-2.050;2024-02-26T10:00:07;18.70;54.90
81935;DHT22;71405;47.674;-2.050;2024-02-26T10:02:35;18.70;54.70
81935;DHT22;71405;47.674;-2.050;2024-02-26T10:05:03;18.70;54.30
81935;DHT22;71405;47.674;-2.050;2024-02-26T10:07:34;18.70;54.70
81935;DHT22;71405;47.674;-2.050;2024-02-26T10:10:01;18.80;54.30
81935;DHT22;71405;47.674;-2.050;2024-02-26T10:12:28;18.70;54.40
81935;DHT22;71405;47.674;-2.050;2024-02-26T10:14:54;18.70;54.30
81935;DHT22;71405;47.674;-2.050;2024-02-26T10:17:20;18.70;54.60
81935;DHT22;71405;47.674;-2.050;2024-02-26T10:19:46;18.70;54.60
81935;DHT22;71405;47.674;-2.050;2024-02-26T10:22:11;18.80;54.30
81935;DHT22;71405;47.674;-2.050;2024-02-26T10:24:37;18.80;54.50
81935;DHT22;71405;47.674;-2.050;2024-02-26T10:27:03;18.80;54.40
81935;DHT22;71405;47.674;-2.050;2024-02-26T10:29:29;18.80;54.30
81935;DHT22;71405;47.674;-2.050;2024-02-26T10:31:54;18.80;54.50
81935;DHT22;71405;47.674;-2.050;2024-02-26T10:34:21;18.80;54.40
81935;DHT22;71405;47.674;-2.050;2024-02-26T10:36:47;18.80;54.50
81935;DHT22;71405;47.674;-2.050;2024-02-26T10:39:13;18.80;54.20
81935;DHT22;71405;47.674;-2.050;2024-02-26T10:41:41;18.80;54.30
81935;DHT22;71405;47.674;-2.050;2024-02-26T10:44:09;18.80;54.20
81935;DHT22;71405;47.674;-2.050;2024-02-26T10:46:36;18.80;54.00
81935;DHT22;71405;47.674;-2.050;2024-02-26T10:49:02;18.80;54.00
81935;DHT22;71405;47.674;-2.050;2024-02-26T10:51:30;18.80;54.30
81935;DHT22;71405;47.674;-2.050;2024-02-26T10:53:58;18.80;54.40
81935;DHT22;71405;47.674;-2.050;2024-02-26T10:56:26;18.90;54.30
81935;DHT22;71405;47.674;-2.050;2024-02-26T10:58:54;18.80;54.40
81935;DHT22;71405;47.674;-2.050;2024-02-26T11:01:20;18.90;54.40
81935;DHT22;71405;47.674;-2.050;2024-02-26T11:03:52;18.90;54.30
81935;DHT22;71405;47.674;-2.050;2024-02-26T11:06:22;18.90;54.30
81935;DHT22;71405;47.674;-2.050;2024-02-26T11:08:50;18.90;53.90
81935;DHT22;71405;47.674;-2.050;2024-02-26T11:11:17;18.90;53.50
81935;DHT22;71405;47.674;-2.050;2024-02-26T11:13:47;18.90;53.30
81935;DHT22;71405;47.674;-2.050;2024-02-26T11:16:19;18.90;53.40
81935;DHT22;71405;47.674;-2.050;2024-02-26T11:18:47;18.90;53.40
81935;DHT22;71405;47.674;-2.050;2024-02-26T11:21:15;18.80;53.40
81935;DHT22;71405;47.674;-2.050;2024-02-26T11:23:41;18.80;53.60
81935;DHT22;71405;47.674;-2.050;2024-02-26T11:26:08;18.80;53.50
81935;DHT22;71405;47.674;-2.050;2024-02-26T11:28:37;18.80;53.90
81935;DHT22;71405;47.674;-2.050;2024-02-26T11:31:04;18.70;54.10
81935;DHT22;71405;47.674;-2.050;2024-02-26T11:33:31;18.70;54.60
81935;DHT22;71405;47.674;-2.050;2024-02-26T11:35:57;18.80;55.60
81935;DHT22;71405;47.674;-2.050;2024-02-26T11:38:25;18.80;55.00
81935;DHT22;71405;47.674;-2.050;2024-02-26T11:40:53;18.70;55.10
81935;DHT22;71405;47.674;-2.050;2024-02-26T11:43:23;18.70;56.80
81935;DHT22;71405;47.674;-2.050;2024-02-26T11:45:50;18.80;58.00
81935;DHT22;71405;47.674;-2.050;2024-02-26T11:48:21;18.80;58.50
81935;DHT22;71405;47.674;-2.050;2024-02-26T11:53:32;18.80;60.50
81935;DHT22;71405;47.674;-2.050;2024-02-26T11:59:10;18.80;61.20
81935;DHT22;71405;47.674;-2.050;2024-02-26T12:01:40;18.80;60.30
81935;DHT22;71405;47.674;-2.050;2024-02-26T12:06:42;18.80;58.90
81935;DHT22;71405;47.674;-2.050;2024-02-26T12:09:08;18.70;58.50
81935;DHT22;71405;47.674;-2.050;2024-02-26T12:11:40;18.70;58.40
81935;DHT22;71405;47.674;-2.050;2024-02-26T12:14:08;18.70;58.20
81935;DHT22;71405;47.674;-2.050;2024-02-26T12:16:38;18.70;58.30
81935;DHT22;71405;47.674;-2.050;2024-02-26T12:19:09;18.70;58.20
81935;DHT22;71405;47.674;-2.050;2024-02-26T12:21:36;18.70;58.20
81935;DHT22;71405;47.674;-2.050;2024-02-26T12:24:13;18.70;57.70
81935;DHT22;71405;47.674;-2.050;2024-02-26T12:26:40;18.70;57.70
81935;DHT22;71405;47.674;-2.050;2024-02-26T12:29:06;18.60;57.70
81935;DHT22;71405;47.674;-2.050;2024-02-26T12:31:32;18.70;57.50
81935;DHT22;71405;47.674;-2.050;2024-02-26T12:34:00;18.60;58.00
81935;DHT22;71405;47.674;-2.050;2024-02-26T12:36:26;18.70;56.90
81935;DHT22;71405;47.674;-2.050;2024-02-26T12:38:52;18.60;57.30
81935;DHT22;71405;47.674;-2.050;2024-02-26T12:41:18;18.60;56.90
81935;DHT22;71405;47.674;-2.050;2024-02-26T12:43:44;18.60;57.30
81935;DHT22;71405;47.674;-2.050;2024-02-26T12:46:10;18.60;56.80
81935;DHT22;71405;47.674;-2.050;2024-02-26T12:48:36;18.60;56.50
81935;DHT22;71405;47.674;-2.050;2024-02-26T12:51:02;18.60;56.90
81935;DHT22;71405;47.674;-2.050;2024-02-26T12:53:28;18.60;56.60
81935;DHT22;71405;47.674;-2.050;2024-02-26T12:55:56;18.60;56.70
81935;DHT22;71405;47.674;-2.050;2024-02-26T12:58:22;18.60;56.50
81935;DHT22;71405;47.674;-2.050;2024-02-26T13:00:54;18.60;56.40
81935;DHT22;71405;47.674;-2.050;2024-02-26T13:03:21;18.60;56.90
81935;DHT22;71405;47.674;-2.050;2024-02-26T13:05:48;18.60;56.60
81935;DHT22;71405;47.674;-2.050;2024-02-26T13:08:21;18.50;56.80
81935;DHT22;71405;47.674;-2.050;2024-02-26T13:10:47;18.60;56.10
81935;DHT22;71405;47.674;-2.050;2024-02-26T13:13:17;18.50;56.10
81935;DHT22;71405;47.674;-2.050;2024-02-26T13:15:43;18.50;56.30
81935;DHT22;71405;47.674;-2.050;2024-02-26T13:18:13;18.50;56.20
81935;DHT22;71405;47.674;-2.050;2024-02-26T13:20:40;18.50;55.90
81935;DHT22;71405;47.674;-2.050;2024-02-26T13:23:12;18.50;56.10
81935;DHT22;71405;47.674;-2.050;2024-02-26T13:25:38;18.50;55.80
81935;DHT22;71405;47.674;-2.050;2024-02-26T13:30:36;18.50;55.60
81935;DHT22;71405;47.674;-2.050;2024-02-26T13:33:12;18.50;55.90
81935;DHT22;71405;47.674;-2.050;2024-02-26T13:35:38;18.50;56.00
81935;DHT22;71405;47.674;-2.050;2024-02-26T13:38:05;18.50;55.70
81935;DHT22;71405;47.674;-2.050;2024-02-26T13:40:31;18.50;55.90
81935;DHT22;71405;47.674;-2.050;2024-02-26T13:42:57;18.50;55.60
81935;DHT22;71405;47.674;-2.050;2024-02-26T13:45:23;18.50;55.60
81935;DHT22;71405;47.674;-2.050;2024-02-26T13:47:49;18.50;55.90
81935;DHT22;71405;47.674;-2.050;2024-02-26T13:50:14;18.40;56.00
81935;DHT22;71405;47.674;-2.050;2024-02-26T13:52:40;18.50;55.90
81935;DHT22;71405;47.674;-2.050;2024-02-26T13:55:06;18.50;56.00
81935;DHT22;71405;47.674;-2.050;2024-02-26T13:57:33;18.40;55.80
81935;DHT22;71405;47.674;-2.050;2024-02-26T13:59:58;18.40;55.50
81935;DHT22;71405;47.674;-2.050;2024-02-26T14:02:24;18.40;55.50
81935;DHT22;71405;47.674;-2.050;2024-02-26T14:04:50;18.40;55.40
81935;DHT22;71405;47.674;-2.050;2024-02-26T14:07:15;18.40;55.40
81935;DHT22;71405;47.674;-2.050;2024-02-26T14:09:43;18.40;55.30
81935;DHT22;71405;47.674;-2.050;2024-02-26T14:12:09;18.40;55.30
81935;DHT22;71405;47.674;-2.050;2024-02-26T14:14:35;18.40;55.40
81935;DHT22;71405;47.674;-2.050;2024-02-26T14:17:04;18.40;55.60
81935;DHT22;71405;47.674;-2.050;2024-02-26T14:19:29;18.40;55.40
81935;DHT22;71405;47.674;-2.050;2024-02-26T14:21:55;18.40;55.20
81935;DHT22;71405;47.674;-2.050;2024-02-26T14:24:20;18.40;55.30
81935;DHT22;71405;47.674;-2.050;2024-02-26T14:26:46;18.40;55.30
81935;DHT22;71405;47.674;-2.050;2024-02-26T14:29:12;18.40;55.40
81935;DHT22;71405;47.674;-2.050;2024-02-26T14:31:38;18.40;55.40
81935;DHT22;71405;47.674;-2.050;2024-02-26T14:34:03;18.40;55.30
81935;DHT22;71405;47.674;-2.050;2024-02-26T14:36:29;18.40;55.00
81935;DHT22;71405;47.674;-2.050;2024-02-26T14:38:55;18.40;55.10
81935;DHT22;71405;47.674;-2.050;2024-02-26T14:41:20;18.40;55.40
81935;DHT22;71405;47.674;-2.050;2024-02-26T14:43:46;18.40;55.30
81935;DHT22;71405;47.674;-2.050;2024-02-26T14:46:12;18.40;55.20
81935;DHT22;71405;47.674;-2.050;2024-02-26T14:48:37;18.40;55.30
81935;DHT22;71405;47.674;-2.050;2024-02-26T14:51:03;18.40;55.40
81935;DHT22;71405;47.674;-2.050;2024-02-26T14:53:31;18.40;55.30
81935;DHT22;71405;47.674;-2.050;2024-02-26T14:55:57;18.40;55.50
81935;DHT22;71405;47.674;-2.050;2024-02-26T14:58:23;18.40;55.10
81935;DHT22;71405;47.674;-2.050;2024-02-26T15:00:49;18.40;55.20
81935;DHT22;71405;47.674;-2.050;2024-02-26T15:03:15;18.40;55.40
81935;DHT22;71405;47.674;-2.050;2024-02-26T15:05:40;18.40;55.50
81935;DHT22;71405;47.674;-2.050;2024-02-26T15:08:06;18.40;55.00
81935;DHT22;71405;47.674;-2.050;2024-02-26T15:10:34;18.40;55.60
81935;DHT22;71405;47.674;-2.050;2024-02-26T15:13:00;18.40;55.00
81935;DHT22;71405;47.674;-2.050;2024-02-26T15:15:26;18.40;55.10
81935;DHT22;71405;47.674;-2.050;2024-02-26T15:17:52;18.30;55.20
81935;DHT22;71405;47.674;-2.050;2024-02-26T15:20:18;18.40;55.40